Time;durP1;ratioP1;P1;durP2;ratioP2;P2;SDS_P1;SDS_P2;PMS_P1;PMS_P2;Temp;Humidity;BMP_temperature;BMP_pressure;BME280_temperature;BME280_humidity;BME280_pressure;Samples;Min_cycle;Max_cycle;Signal;HPM_P1;HPM_P2
2021/09/09 00:00:31;;;;;;;13.13;8.35;;;;;;;14.29;68.81;100955.41;5032888;28;20068;-65
2021/09/09 00:02:56;;;;;;;13.48;8.25;;;;;;;14.26;68.71;100956.53;5028421;28;20085;-65
2021/09/09 00:05:22;;;;;;;16.85;8.75;;;;;;;14.10;68.87;100933.78;5012726;28;20080;-64
2021/09/09 00:07:47;;;;;;;18.88;9.32;;;;;;;14.11;68.95;100946.25;5028567;28;20048;-64
2021/09/09 00:10:13;;;;;;;17.77;8.73;;;;;;;14.08;69.43;100952.81;5032496;28;20413;-66
2021/09/09 00:12:39;;;;;;;19.08;8.57;;;;;;;13.99;69.88;100940.16;5048134;28;20025;-65
2021/09/09 00:15:05;;;;;;;15.05;8.80;;;;;;;14.03;70.09;100956.94;5032525;28;20080;-66
2021/09/09 00:17:31;;;;;;;16.63;9.00;;;;;;;13.99;70.29;100953.66;5032482;28;20045;-66
2021/09/09 00:19:56;;;;;;;19.30;9.40;;;;;;;13.94;70.06;100955.06;5047689;28;20129;-66
2021/09/09 00:22:22;;;;;;;15.88;8.57;;;;;;;13.92;70.09;100962.44;5030873;28;20029;-66
2021/09/09 00:24:48;;;;;;;15.07;8.60;;;;;;;13.85;70.21;100956.75;5032306;28;20040;-67
2021/09/09 00:27:13;;;;;;;17.30;8.60;;;;;;;13.83;70.75;100947.94;5032481;28;20033;-67
2021/09/09 00:29:38;;;;;;;14.90;9.13;;;;;;;13.77;71.43;100943.97;5015116;28;20033;-66
2021/09/09 00:32:04;;;;;;;21.27;9.55;;;;;;;13.82;71.20;100948.09;5012442;28;20034;-66
2021/09/09 00:34:30;;;;;;;14.02;8.70;;;;;;;13.77;71.19;100953.94;5012946;28;20018;-67
2021/09/09 00:36:55;;;;;;;15.07;8.77;;;;;;;13.77;70.80;100953.94;5032158;28;20039;-66
2021/09/09 00:39:21;;;;;;;15.23;8.90;;;;;;;13.74;70.67;100946.13;5031929;28;20052;-66
2021/09/09 00:41:46;;;;;;;17.05;8.25;;;;;;;13.69;70.71;100945.66;5031994;28;20025;-66
2021/09/09 00:44:26;;;;;;;15.63;8.95;;;;;;;13.64;70.64;100954.16;5032130;28;20498;-66
2021/09/09 00:46:57;;;;;;;20.67;8.90;;;;;;;13.61;71.19;100956.31;5046975;28;20523;-66
2021/09/09 00:49:23;;;;;;;16.88;9.35;;;;;;;13.52;71.45;100952.56;5012077;28;20379;-66
2021/09/09 00:51:48;;;;;;;19.60;8.50;;;;;;;13.42;71.54;100949.00;5012184;28;20022;-66
2021/09/09 00:54:14;;;;;;;13.13;8.75;;;;;;;13.44;71.66;100948.88;5012016;28;20052;-67
2021/09/09 00:56:39;;;;;;;16.05;9.00;;;;;;;13.40;72.04;100947.44;5012174;28;20033;-66
2021/09/09 00:59:05;;;;;;;19.58;9.15;;;;;;;13.36;72.02;100941.50;5011918;28;20041;-66
2021/09/09 01:01:30;;;;;;;15.80;8.73;;;;;;;13.30;71.76;100949.25;5011801;28;20034;-67
2021/09/09 01:03:56;;;;;;;16.65;8.75;;;;;;;13.30;71.82;100952.81;5011658;28;20053;-67
2021/09/09 01:06:21;;;;;;;19.17;9.55;;;;;;;13.24;72.39;100936.31;5011791;28;20034;-67
2021/09/09 01:08:47;;;;;;;18.60;8.95;;;;;;;13.24;72.38;100941.72;5011558;28;20033;-66
2021/09/09 01:11:12;;;;;;;19.40;10.15;;;;;;;13.20;72.88;100948.38;5011849;28;20406;-66
2021/09/09 01:13:38;;;;;;;17.67;8.93;;;;;;;13.27;72.76;100954.91;5011820;28;20083;-66
2021/09/09 01:16:04;;;;;;;17.10;8.75;;;;;;;13.24;73.57;100936.31;5010088;28;20490;-66
2021/09/09 01:18:29;;;;;;;16.15;7.95;;;;;;;13.25;72.88;100936.19;5011321;28;20030;-66
2021/09/09 01:20:55;;;;;;;17.52;9.13;;;;;;;13.23;72.61;100937.31;5011590;28;20050;-66
2021/09/09 01:23:21;;;;;;;18.13;8.90;;;;;;;13.21;72.72;100939.28;5010018;28;20033;-66
2021/09/09 01:25:47;;;;;;;16.25;9.48;;;;;;;13.09;73.02;100927.75;5011406;28;20153;-66
2021/09/09 01:28:12;;;;;;;21.90;9.02;;;;;;;13.07;73.47;100927.06;5011514;28;20512;-66
2021/09/09 01:30:38;;;;;;;14.15;8.05;;;;;;;13.08;73.26;100927.91;5011358;28;20052;-66
2021/09/09 01:33:04;;;;;;;20.25;9.77;;;;;;;13.00;73.60;100919.66;5011178;28;20029;-66
2021/09/09 01:35:30;;;;;;;16.05;8.95;;;;;;;13.01;74.01;100933.00;5011274;28;20026;-65
2021/09/09 01:37:55;;;;;;;21.52;9.55;;;;;;;13.01;73.75;100933.00;5011387;28;20536;-64
2021/09/09 01:40:32;;;;;;;19.42;9.07;;;;;;;13.00;73.40;100931.25;5011160;28;20040;-64
2021/09/09 01:42:59;;;;;;;17.20;9.52;;;;;;;13.01;73.92;100932.13;5011274;28;20111;-64
2021/09/09 01:45:24;;;;;;;13.00;8.73;;;;;;;12.99;73.56;100934.97;5010816;28;20038;-65
2021/09/09 01:47:50;;;;;;;15.13;8.57;;;;;;;12.99;73.59;100926.00;5011020;28;20017;-64
2021/09/09 01:50:15;;;;;;;13.70;8.90;;;;;;;12.98;73.72;100929.66;5011290;28;20044;-64
2021/09/09 01:52:41;;;;;;;16.55;8.65;;;;;;;12.94;73.65;100928.25;5011208;28;20041;-64
2021/09/09 01:55:07;;;;;;;15.63;8.50;;;;;;;12.92;73.05;100924.81;5010906;28;20033;-64
2021/09/09 01:57:32;;;;;;;14.90;8.20;;;;;;;12.92;73.76;100928.38;5009687;28;20037;-64
2021/09/09 01:59:59;;;;;;;18.33;8.68;;;;;;;12.90;72.93;100930.34;5010680;28;20034;-64
2021/09/09 02:02:25;;;;;;;14.43;8.23;;;;;;;12.88;73.39;100928.78;5009402;28;20060;-64
2021/09/09 02:04:50;;;;;;;14.63;8.55;;;;;;;12.86;73.43;100939.69;5010672;28;20030;-64
2021/09/09 02:07:16;;;;;;;12.70;8.50;;;;;;;12.86;74.30;100939.69;5010859;28;20040;-64
2021/09/09 02:09:41;;;;;;;14.45;8.63;;;;;;;12.78;73.92;100919.81;5024689;28;20129;-66
2021/09/09 02:12:07;;;;;;;16.15;8.35;;;;;;;12.85;73.85;100947.88;5010656;28;20033;-66
2021/09/09 02:14:32;;;;;;;16.23;8.30;;;;;;;12.80;72.85;100940.22;5010621;28;20026;-66
2021/09/09 02:16:58;;;;;;;15.27;8.00;;;;;;;12.82;72.66;100938.25;5010555;28;20052;-66
2021/09/09 02:19:23;;;;;;;14.32;8.40;;;;;;;12.77;72.72;100934.25;5010430;28;20575;-66
2021/09/09 02:21:49;;;;;;;15.10;8.23;;;;;;;12.79;72.21;100945.72;5010630;28;20508;-66
2021/09/09 02:24:14;;;;;;;18.02;9.02;;;;;;;12.76;72.78;100937.91;5010521;28;20487;-66
2021/09/09 02:26:40;;;;;;;14.68;8.57;;;;;;;12.73;72.69;100935.47;5010640;28;20033;-66
2021/09/09 02:29:05;;;;;;;15.35;8.35;;;;;;;12.70;73.34;100944.69;5010356;28;20035;-66
2021/09/09 02:31:30;;;;;;;14.80;8.55;;;;;;;12.67;73.63;100930.66;5010435;28;20114;-67
2021/09/09 02:33:56;;;;;;;15.82;8.45;;;;;;;12.68;73.84;100932.34;5010541;28;20041;-67
2021/09/09 02:36:21;;;;;;;14.80;8.57;;;;;;;12.64;72.81;100936.31;5010310;28;20018;-66
2021/09/09 02:38:47;;;;;;;14.25;8.15;;;;;;;12.65;72.25;100938.00;5009233;28;20117;-66
2021/09/09 02:41:12;;;;;;;13.52;8.07;;;;;;;12.58;72.92;100928.75;5011887;28;20033;-66
2021/09/09 02:43:38;;;;;;;14.15;8.57;;;;;;;12.60;72.95;100930.31;5015727;28;20029;-66
2021/09/09 02:46:03;;;;;;;14.73;8.35;;;;;;;12.56;73.45;100926.19;5020166;28;20040;-66
2021/09/09 02:48:29;;;;;;;17.40;8.10;;;;;;;12.59;74.43;100933.16;5016227;28;20082;-66
2021/09/09 02:50:54;;;;;;;13.35;8.13;;;;;;;12.56;73.84;100925.34;5022160;28;20482;-66
2021/09/09 02:53:20;;;;;;;15.68;8.88;;;;;;;12.48;73.73;100923.31;5021783;28;20069;-66
2021/09/09 02:55:45;;;;;;;12.00;7.45;;;;;;;12.48;73.00;100925.16;5022403;28;20389;-66
2021/09/09 02:58:10;;;;;;;14.75;8.07;;;;;;;12.46;73.03;100924.44;5022138;28;20076;-65
2021/09/09 03:00:36;;;;;;;15.02;8.00;;;;;;;12.42;72.43;100929.25;5022824;28;20029;-66
2021/09/09 03:03:02;;;;;;;14.57;8.80;;;;;;;12.35;73.11;100927.19;5021532;28;20093;-66
2021/09/09 03:05:27;;;;;;;15.30;9.25;;;;;;;12.31;73.37;100929.28;5022708;28;20455;-66
2021/09/09 03:07:52;;;;;;;13.60;8.30;;;;;;;12.24;74.26;100927.25;5013502;28;20057;-66
2021/09/09 03:10:18;;;;;;;15.70;8.25;;;;;;;12.18;74.36;100923.25;5018664;28;20510;-66
2021/09/09 03:12:43;;;;;;;16.65;9.10;;;;;;;12.19;75.33;100929.47;5013224;28;20521;-66
2021/09/09 03:15:09;;;;;;;15.05;8.93;;;;;;;12.08;75.05;100918.75;5009855;28;20482;-66
2021/09/09 03:17:35;;;;;;;13.18;8.32;;;;;;;12.14;75.62;100931.69;5010169;28;20041;-66
2021/09/09 03:20:01;;;;;;;13.30;8.45;;;;;;;12.12;74.89;100925.63;5010254;28;20061;-63
2021/09/09 03:22:26;;;;;;;17.50;8.55;;;;;;;12.13;75.54;100930.88;5012864;28;20022;-64
2021/09/09 03:24:51;;;;;;;12.88;8.60;;;;;;;11.99;75.37;100915.03;5013729;28;20041;-64
2021/09/09 03:27:17;;;;;;;21.73;8.85;;;;;;;12.07;75.21;100923.31;5013770;28;20029;-64
2021/09/09 03:29:42;;;;;;;13.90;8.85;;;;;;;11.99;75.77;100911.50;5020802;28;20025;-63
2021/09/09 03:32:08;;;;;;;13.65;8.38;;;;;;;12.06;75.79;100920.75;5013644;28;20096;-64
2021/09/09 03:34:33;;;;;;;17.10;9.30;;;;;;;11.97;75.89;100906.25;5013262;28;20437;-64
2021/09/09 03:36:59;;;;;;;33.53;9.57;;;;;;;12.03;76.01;100923.69;5013573;28;20030;-64
2021/09/09 03:39:24;;;;;;;40.70;10.10;;;;;;;12.01;76.01;100923.81;5012061;28;20053;-64
2021/09/09 03:41:50;;;;;;;47.60;11.77;;;;;;;12.03;76.34;100939.81;5013606;28;20099;-66
2021/09/09 03:44:15;;;;;;;47.35;11.52;;;;;;;11.99;76.82;100919.56;5012986;28;20026;-66
2021/09/09 03:46:40;;;;;;;29.55;9.88;;;;;;;11.87;76.48;100908.00;5013194;28;20037;-66
2021/09/09 03:49:06;;;;;;;17.67;9.68;;;;;;;11.94;77.12;100928.00;5013323;28;20386;-66
2021/09/09 03:51:31;;;;;;;12.82;8.23;;;;;;;11.92;76.54;100919.22;5013002;28;20036;-66
2021/09/09 03:53:57;;;;;;;14.70;9.38;;;;;;;11.84;77.82;100920.84;5011786;28;20026;-66
2021/09/09 03:56:22;;;;;;;18.02;9.73;;;;;;;11.85;77.13;100931.47;5013109;28;20033;-66
2021/09/09 03:58:48;;;;;;;19.15;9.48;;;;;;;11.79;78.27;100931.09;5020222;28;20389;-66
2021/09/09 04:01:13;;;;;;;19.25;8.75;;;;;;;11.76;79.07;100940.28;5047348;28;20033;-66
2021/09/09 04:03:39;;;;;;;17.70;9.32;;;;;;;11.72;78.55;100938.84;5032622;28;20035;-67
2021/09/09 04:06:04;;;;;;;21.95;10.10;;;;;;;11.64;78.92;100930.53;5032793;28;20028;-66
2021/09/09 04:08:29;;;;;;;15.70;9.07;;;;;;;11.68;79.56;100931.16;5032805;28;20026;-66
2021/09/09 04:10:55;;;;;;;23.42;10.48;;;;;;;11.70;79.84;100931.88;5022778;28;20046;-65
2021/09/09 04:13:21;;;;;;;21.08;9.50;;;;;;;11.71;80.91;100936.28;5020868;28;20637;-64
2021/09/09 04:15:46;;;;;;;15.90;9.27;;;;;;;11.67;80.64;100919.53;5023429;28;20800;-64
2021/09/09 04:18:11;;;;;;;31.52;10.30;;;;;;;11.71;80.74;100934.44;5015610;28;20029;-64
2021/09/09 04:20:37;;;;;;;21.80;9.70;;;;;;;11.63;80.49;100923.47;5012562;28;20084;-64
2021/09/09 04:23:02;;;;;;;25.27;9.45;;;;;;;11.68;80.06;100934.69;5012831;28;20461;-65
2021/09/09 04:25:28;;;;;;;19.67;9.23;;;;;;;11.64;80.56;100919.78;5012557;28;20108;-65
2021/09/09 04:27:53;;;;;;;23.92;9.85;;;;;;;11.68;80.50;100931.16;5011233;28;20100;-64
2021/09/09 04:30:19;;;;;;;23.17;10.18;;;;;;;11.73;80.20;100926.25;5011259;28;20036;-64
2021/09/09 04:32:44;;;;;;;19.15;9.60;;;;;;;11.73;79.84;100931.63;5012021;28;20080;-64
2021/09/09 04:35:10;;;;;;;19.00;9.32;;;;;;;11.80;79.60;100933.66;5012433;28;20076;-66
2021/09/09 04:37:36;;;;;;;27.58;10.02;;;;;;;11.84;80.38;100939.66;5021934;28;20041;-67
2021/09/09 04:40:03;;;;;;;17.67;9.55;;;;;;;11.86;80.52;100930.47;5020115;28;20034;-66
2021/09/09 04:42:28;;;;;;;23.80;9.85;;;;;;;11.88;80.75;100936.59;5012197;28;20028;-67
2021/09/09 04:44:54;;;;;;;20.42;8.88;;;;;;;11.92;80.81;100932.66;5012397;28;20710;-67
2021/09/09 04:47:19;;;;;;;23.92;10.10;;;;;;;11.93;81.46;100930.81;5012439;28;20470;-66
2021/09/09 04:49:45;;;;;;;29.90;11.50;;;;;;;12.01;81.63;100931.03;5009812;28;20026;-68
2021/09/09 04:52:10;;;;;;;27.40;10.10;;;;;;;11.99;82.25;100920.41;5016683;28;20033;-67
2021/09/09 04:54:35;;;;;;;23.38;10.07;;;;;;;12.14;82.07;100942.44;5014962;28;20052;-67
2021/09/09 04:57:01;;;;;;;28.27;11.02;;;;;;;12.14;81.37;100934.38;5015682;28;20467;-67
2021/09/09 04:59:27;;;;;;;34.88;10.40;;;;;;;12.23;81.78;100941.69;5010360;28;20037;-67
2021/09/09 05:01:53;;;;;;;30.58;10.35;;;;;;;12.27;82.06;100943.13;5010606;28;20038;-67
2021/09/09 05:04:19;;;;;;;38.85;11.95;;;;;;;12.28;82.26;100937.59;5029635;28;20100;-64
2021/09/09 05:06:45;;;;;;;24.98;11.60;;;;;;;12.39;82.05;100944.78;5016663;28;20455;-64
2021/09/09 05:09:10;;;;;;;29.50;11.23;;;;;;;12.45;82.38;100953.16;5021174;28;20039;-64
2021/09/09 05:11:36;;;;;;;26.25;9.95;;;;;;;12.54;82.90;100959.63;5013554;28;20894;-64
2021/09/09 05:14:01;;;;;;;27.90;10.45;;;;;;;12.53;82.38;100948.00;5019715;28;20034;-64
2021/09/09 05:16:26;;;;;;;26.40;10.80;;;;;;;12.66;82.24;100951.34;5010428;28;20018;-64
2021/09/09 05:18:52;;;;;;;36.70;10.23;;;;;;;12.68;82.68;100940.44;5010578;28;20034;-64
2021/09/09 05:21:17;;;;;;;29.02;10.93;;;;;;;12.86;83.38;100954.97;5010549;28;20523;-65
2021/09/09 05:23:43;;;;;;;34.85;11.32;;;;;;;12.78;82.65;100923.34;5010654;28;20414;-64
2021/09/09 05:26:08;;;;;;;27.33;10.20;;;;;;;13.05;82.13;100944.31;5010364;28;20482;-63
2021/09/09 05:28:34;;;;;;;45.97;11.23;;;;;;;13.04;81.85;100929.16;5010022;28;20026;-63
2021/09/09 05:30:59;;;;;;;48.95;10.70;;;;;;;13.27;81.09;100946.84;5010354;28;20068;-64
2021/09/09 05:33:25;;;;;;;38.78;11.18;;;;;;;13.40;80.88;100956.38;5010317;28;20413;-64
2021/09/09 05:35:50;;;;;;;34.33;11.45;;;;;;;13.54;79.97;100958.69;5010339;28;20026;-64
2021/09/09 05:38:16;;;;;;;26.70;11.43;;;;;;;13.67;79.29;100958.41;5008866;28;20080;-64
2021/09/09 05:40:41;;;;;;;32.22;11.48;;;;;;;13.82;79.26;100953.47;5010113;28;20038;-64
2021/09/09 05:43:07;;;;;;;32.17;10.82;;;;;;;13.93;79.09;100942.59;5009703;28;20037;-64
2021/09/09 05:45:32;;;;;;;31.25;10.18;;;;;;;14.10;78.16;100952.66;5009973;28;20025;-64
2021/09/09 05:48:00;;;;;;;23.77;10.23;;;;;;;14.27;77.48;100947.44;5010942;28;20201;-64
2021/09/09 05:50:26;;;;;;;22.60;9.75;;;;;;;14.52;76.26;100954.97;5013849;28;20472;-64
2021/09/09 05:52:51;;;;;;;19.80;10.55;;;;;;;14.68;75.38;100943.56;5010478;28;20088;-64
2021/09/09 05:55:17;;;;;;;16.27;10.10;;;;;;;14.91;74.09;100956.56;5019772;28;20025;-64
2021/09/09 05:57:42;;;;;;;19.33;10.20;;;;;;;15.11;72.54;100949.22;5019804;28;20030;-64
2021/09/09 06:00:11;;;;;;;18.70;8.75;;;;;;;15.30;71.35;100955.44;5017723;28;20128;-64
2021/09/09 06:02:44;;;;;;;15.88;8.80;;;;;;;15.51;69.94;100941.69;5023839;28;20083;-65
2021/09/09 06:05:12;;;;;;;20.05;9.23;;;;;;;15.76;68.61;100941.81;5013164;28;20045;-64
2021/09/09 06:07:37;;;;;;;17.80;8.93;;;;;;;15.99;66.90;100942.19;5025759;28;20045;-63
2021/09/09 06:10:03;;;;;;;21.25;8.60;;;;;;;16.21;65.36;100930.06;5010467;28;20079;-63
2021/09/09 06:12:29;;;;;;;14.30;8.35;;;;;;;16.52;64.71;100936.78;5010795;28;20021;-64
2021/09/09 06:14:54;;;;;;;14.00;8.63;;;;;;;16.76;63.38;100934.25;5011115;28;20479;-64
2021/09/09 06:17:20;;;;;;;11.45;8.70;;;;;;;16.97;62.97;100932.03;5010658;28;20026;-63
2021/09/09 06:19:46;;;;;;;17.85;7.80;;;;;;;17.21;61.68;100943.84;5010943;28;20030;-64
2021/09/09 06:22:11;;;;;;;14.07;8.55;;;;;;;17.38;60.98;100923.09;5010718;28;20021;-64
2021/09/09 06:24:37;;;;;;;15.18;8.93;;;;;;;17.67;59.98;100927.09;5010446;28;20052;-64
2021/09/09 06:27:03;;;;;;;15.90;8.13;;;;;;;17.92;59.34;100922.56;5010810;28;20034;-64
2021/09/09 06:29:28;;;;;;;16.75;8.30;;;;;;;18.15;58.26;100934.47;5010433;28;20040;-63
2021/09/09 06:31:54;;;;;;;18.15;9.20;;;;;;;18.41;57.63;100932.50;5024143;28;20034;-64
2021/09/09 06:34:19;;;;;;;15.48;7.07;;;;;;;18.60;56.71;100920.44;5043139;28;20017;-64
2021/09/09 06:36:45;;;;;;;15.73;7.97;;;;;;;18.90;56.47;100930.59;5029946;28;20473;-64
2021/09/09 06:39:13;;;;;;;19.77;9.02;;;;;;;19.09;55.45;100925.59;5045466;28;20029;-64
2021/09/09 06:41:40;;;;;;;14.48;7.82;;;;;;;19.38;54.98;100939.47;5029832;28;20033;-64
2021/09/09 06:44:05;;;;;;;18.38;7.75;;;;;;;19.61;54.88;100942.28;5045792;28;20433;-64
2021/09/09 06:46:32;;;;;;;14.93;7.93;;;;;;;19.80;53.74;100926.31;5045230;28;20091;-64
2021/09/09 06:48:57;;;;;;;10.52;6.85;;;;;;;20.09;53.29;100931.09;5030284;28;20152;-64
2021/09/09 06:51:24;;;;;;;9.20;7.05;;;;;;;20.22;52.16;100915.03;5030189;28;20104;-64
2021/09/09 06:53:49;;;;;;;12.70;7.82;;;;;;;20.48;52.28;100920.09;5029895;28;20581;-64
2021/09/09 06:56:15;;;;;;;16.58;7.47;;;;;;;20.68;50.74;100918.53;5032851;28;20104;-65
2021/09/09 06:58:40;;;;;;;13.70;7.30;;;;;;;20.82;50.52;100909.53;5034150;28;20037;-67
2021/09/09 07:01:06;;;;;;;10.52;6.55;;;;;;;21.05;50.22;100907.63;5026535;28;20045;-67
2021/09/09 07:03:31;;;;;;;16.77;7.05;;;;;;;21.34;49.86;100921.22;5014423;28;20034;-64
2021/09/09 07:05:57;;;;;;;13.48;6.43;;;;;;;21.54;49.18;100919.63;5014360;28;20030;-64
2021/09/09 07:08:23;;;;;;;16.58;7.10;;;;;;;21.79;48.48;100932.78;5027745;28;20435;-64
2021/09/09 07:10:48;;;;;;;15.20;6.13;;;;;;;21.94;47.12;100917.22;5033781;28;20396;-64
2021/09/09 07:13:17;;;;;;;11.10;5.88;;;;;;;22.18;46.27;100915.97;5019495;28;20022;-64
2021/09/09 07:15:43;;;;;;;9.85;5.78;;;;;;;22.45;44.98;100928.00;5012342;28;20026;-64
2021/09/09 07:18:08;;;;;;;12.35;4.68;;;;;;;22.64;45.00;100925.50;5013639;28;20021;-64
2021/09/09 07:20:34;;;;;;;20.00;5.82;;;;;;;22.90;43.09;100927.59;5013599;28;20514;-64
2021/09/09 07:22:59;;;;;;;16.83;4.75;;;;;;;23.16;42.42;100927.75;5028910;28;20557;-64
2021/09/09 07:25:24;;;;;;;10.30;5.20;;;;;;;23.40;42.48;100928.16;5012314;28;20082;-64
2021/09/09 07:27:50;;;;;;;10.57;4.50;;;;;;;23.58;41.50;100909.28;5013895;28;20395;-64
2021/09/09 07:30:15;;;;;;;10.27;4.75;;;;;;;23.89;40.79;100911.50;5013746;28;20038;-65
2021/09/09 07:32:41;;;;;;;8.98;4.50;;;;;;;24.11;40.52;100904.81;5013660;28;20029;-64
2021/09/09 07:35:07;;;;;;;10.82;4.50;;;;;;;24.30;40.03;100915.84;5013750;28;20021;-65
2021/09/09 07:37:32;;;;;;;10.57;4.07;;;;;;;24.48;39.28;100906.16;5013596;28;20032;-65
2021/09/09 07:39:58;;;;;;;9.32;3.78;;;;;;;24.71;38.39;100903.84;5013667;28;20037;-64
2021/09/09 07:42:23;;;;;;;8.45;3.92;;;;;;;24.97;37.52;100912.91;5013595;28;20483;-65
2021/09/09 07:44:49;;;;;;;5.07;3.40;;;;;;;25.21;37.24;100917.72;5013529;28;20582;-64
2021/09/09 07:47:15;;;;;;;10.93;4.20;;;;;;;25.39;36.65;100908.81;5012252;28;20030;-65
2021/09/09 07:49:40;;;;;;;5.97;3.67;;;;;;;25.64;35.83;100921.66;5012090;28;20510;-65
2021/09/09 07:52:06;;;;;;;8.57;3.53;;;;;;;25.88;36.06;100926.38;5013361;28;20061;-64
2021/09/09 07:54:31;;;;;;;6.60;3.30;;;;;;;26.17;34.79;100920.31;5013485;28;20136;-65
2021/09/09 07:56:57;;;;;;;7.55;3.22;;;;;;;26.48;34.53;100913.97;5013210;28;20028;-64
2021/09/09 07:59:24;;;;;;;5.00;3.35;;;;;;;26.92;33.74;100916.56;5013141;28;20041;-64
2021/09/09 08:01:49;;;;;;;7.07;3.05;;;;;;;27.62;32.74;100918.81;5026517;28;20053;-65
2021/09/09 08:04:18;;;;;;;7.60;3.53;;;;;;;28.30;32.15;100900.91;5013131;28;20030;-64
2021/09/09 08:06:44;;;;;;;11.25;3.03;;;;;;;29.27;29.94;100899.50;5012150;28;20076;-65
2021/09/09 08:09:10;;;;;;;9.52;3.20;;;;;;;30.24;29.54;100891.88;5028110;28;20061;-65
2021/09/09 08:11:36;;;;;;;9.13;3.22;;;;;;;31.39;27.81;100894.88;5012975;28;20069;-65
2021/09/09 08:14:02;;;;;;;5.45;3.13;;;;;;;32.50;26.17;100884.81;5013084;28;20041;-65
2021/09/09 08:16:28;;;;;;;6.18;2.78;;;;;;;33.76;24.32;100883.69;5011813;28;20028;-65
2021/09/09 08:18:53;;;;;;;10.60;3.30;;;;;;;34.58;23.57;100878.06;5011776;28;20355;-65
2021/09/09 08:21:19;;;;;;;10.63;3.42;;;;;;;35.28;22.97;100877.16;5012478;28;20034;-65
2021/09/09 08:23:44;;;;;;;8.15;2.83;;;;;;;35.99;22.50;100887.81;5012828;28;20471;-65
2021/09/09 08:26:10;;;;;;;7.82;2.85;;;;;;;36.51;21.70;100896.44;5012746;28;20030;-65
2021/09/09 08:28:37;;;;;;;7.97;2.70;;;;;;;36.98;21.07;100881.78;5012756;28;20652;-65
2021/09/09 08:31:03;;;;;;;3.72;2.70;;;;;;;37.29;20.85;100880.34;5012984;28;20502;-65
2021/09/09 08:33:28;;;;;;;6.78;2.40;;;;;;;37.75;20.63;100875.84;5027858;28;20026;-65
2021/09/09 08:35:54;;;;;;;7.20;3.13;;;;;;;37.99;20.10;100867.41;5012445;28;20048;-66
2021/09/09 08:38:19;;;;;;;6.53;2.80;;;;;;;38.31;19.70;100873.13;5012510;28;20021;-65
2021/09/09 08:40:50;;;;;;;10.40;2.92;;;;;;;38.45;20.02;100865.59;5012513;28;20052;-65
2021/09/09 08:43:15;;;;;;;7.68;2.85;;;;;;;38.60;19.53;100856.13;5012539;28;20041;-63
2021/09/09 08:45:41;;;;;;;7.47;2.55;;;;;;;38.65;19.87;100872.88;5012208;28;20382;-64
2021/09/09 08:48:08;;;;;;;11.13;2.75;;;;;;;38.64;19.83;100857.16;5012427;28;20486;-64
2021/09/09 08:50:34;;;;;;;7.93;2.60;;;;;;;38.59;19.51;100868.47;5012053;28;20026;-65
2021/09/09 08:53:01;;;;;;;6.85;2.83;;;;;;;38.31;19.51;100857.13;5012522;28;20026;-64
2021/09/09 08:55:27;;;;;;;11.45;3.05;;;;;;;37.86;20.30;100868.16;5012300;28;20030;-65
2021/09/09 08:57:55;;;;;;;6.40;2.75;;;;;;;37.26;20.63;100855.72;5012154;28;20041;-65
2021/09/09 09:00:20;;;;;;;7.78;3.17;;;;;;;36.53;21.43;100843.00;5012111;28;20034;-65
2021/09/09 09:02:56;;;;;;;12.25;3.22;;;;;;;35.70;21.98;100858.91;5012030;28;20026;-64
2021/09/09 09:05:23;;;;;;;7.63;2.88;;;;;;;34.98;22.72;100852.16;5012022;28;20050;-65
2021/09/09 09:08:00;;;;;;;7.85;2.80;;;;;;;34.16;23.57;100850.44;5012144;28;20025;-65
2021/09/09 09:10:26;;;;;;;15.00;3.20;;;;;;;33.52;24.26;100848.28;5011833;28;20057;-65
2021/09/09 09:12:52;;;;;;;13.30;3.45;;;;;;;32.98;25.20;100852.44;5011719;28;20398;-65
2021/09/09 09:15:19;;;;;;;13.30;3.13;;;;;;;32.54;25.79;100852.66;5011821;28;20096;-64
2021/09/09 09:18:06;;;;;;;11.32;3.13;;;;;;;32.22;26.05;100853.69;5009639;28;20031;-68
2021/09/09 09:20:47;;;;;;;18.35;3.78;;;;;;;31.81;26.57;100849.66;5011835;28;20032;-68
2021/09/09 09:23:24;;;;;;;10.13;3.17;;;;;;;31.46;27.15;100854.75;5011700;28;20108;-68
2021/09/09 09:25:59;;;;;;;17.48;4.18;;;;;;;31.22;27.42;100858.00;5024715;28;20112;-68
2021/09/09 09:28:50;;;;;;;11.20;2.70;;;;;;;30.93;27.64;100846.25;5031264;28;20386;-68
2021/09/09 09:31:23;;;;;;;19.05;4.28;;;;;;;30.66;27.84;100834.13;5031212;28;20076;-68
2021/09/09 09:33:56;;;;;;;11.43;3.53;;;;;;;30.40;28.15;100821.81;5046508;28;20041;-68
2021/09/09 09:36:29;;;;;;;6.22;3.33;;;;;;;30.35;28.16;100834.75;5029778;28;20116;-68
2021/09/09 09:39:10;;;;;;;13.18;3.33;;;;;;;30.10;28.94;100834.25;5031261;28;20026;-68
2021/09/09 09:41:55;;;;;;;11.30;3.05;;;;;;;29.93;29.23;100847.25;5030823;28;20398;-68
2021/09/09 09:44:35;;;;;;;11.20;3.15;;;;;;;29.75;29.25;100836.38;5030989;28;20430;-68
2021/09/09 09:47:20;;;;;;;7.40;3.08;;;;;;;29.58;29.36;100833.53;5031086;28;20403;-65
2021/09/09 09:49:50;;;;;;;12.32;3.15;;;;;;;29.46;29.34;100829.09;5046375;28;20492;-64
2021/09/09 09:52:27;;;;;;;7.72;3.10;;;;;;;29.34;29.40;100820.84;5031065;28;20030;-64
2021/09/09 09:54:53;;;;;;;7.03;2.97;;;;;;;29.26;29.69;100831.44;5030798;28;20037;-65
2021/09/09 09:57:20;;;;;;;3.83;2.72;;;;;;;29.08;29.86;100818.63;5030608;28;20168;-64
2021/09/09 09:59:46;;;;;;;7.25;2.92;;;;;;;28.98;29.66;100809.28;5030662;28;20075;-64
2021/09/09 10:02:11;;;;;;;11.48;2.90;;;;;;;28.90;30.11;100817.91;5029302;28;20033;-65
2021/09/09 10:04:41;;;;;;;4.45;2.80;;;;;;;28.85;29.93;100815.06;5030614;28;20029;-64
2021/09/09 10:07:09;;;;;;;9.02;2.95;;;;;;;28.82;30.38;100827.41;5030635;28;20025;-65
2021/09/09 10:09:34;;;;;;;7.55;2.92;;;;;;;28.76;29.69;100820.09;5030474;28;20050;-65
2021/09/09 10:12:00;;;;;;;7.63;2.78;;;;;;;28.66;29.53;100807.97;5029310;28;20104;-65
2021/09/09 10:14:26;;;;;;;6.78;2.45;;;;;;;28.58;29.84;100811.06;5009257;28;20116;-64
2021/09/09 10:17:00;;;;;;;5.25;2.97;;;;;;;28.61;30.37;100813.38;5009420;28;20057;-65
2021/09/09 10:19:34;;;;;;;;;;;;;;;28.48;30.65;100809.78;5009930;28;20076;-65
2021/09/09 10:22:21;;;;;;;6.28;3.08;;;;;;;28.45;30.20;100807.50;5010991;28;19913;-64
2021/09/09 10:25:04;;;;;;;4.97;3.00;;;;;;;28.32;30.21;100785.63;5010602;28;20394;-64
2021/09/09 10:27:35;;;;;;;5.43;2.63;;;;;;;28.27;30.12;100785.47;5009469;28;20030;-65
2021/09/09 10:30:05;;;;;;;6.88;3.03;;;;;;;28.32;30.29;100793.91;5010410;28;20026;-65
2021/09/09 10:32:34;;;;;;;9.00;2.70;;;;;;;28.36;30.45;100792.31;5010567;28;20083;-64
2021/09/09 10:35:14;;;;;;;3.80;2.78;;;;;;;28.32;30.13;100790.28;5010590;28;20049;-64
2021/09/09 10:37:41;;;;;;;8.90;2.97;;;;;;;28.24;30.32;100780.44;5010529;28;20037;-64
2021/09/09 10:40:06;;;;;;;6.57;3.20;;;;;;;28.09;30.14;100774.53;5025847;28;20394;-64
2021/09/09 10:42:40;;;;;;;6.47;3.25;;;;;;;28.10;30.77;100790.03;5010470;28;20038;-65
2021/09/09 10:45:27;;;;;;;5.40;3.13;;;;;;;27.91;30.70;100762.75;5010422;28;20028;-64
2021/09/09 10:47:52;;;;;;;9.45;3.00;;;;;;;28.00;30.85;100783.38;5009080;28;20037;-64
2021/09/09 10:50:23;;;;;;;4.90;3.30;;;;;;;27.98;30.75;100778.09;5010481;28;20088;-64
2021/09/09 10:53:32;;;;;;;7.60;2.83;;;;;;;27.95;31.14;100769.50;5010359;28;20430;-65
2021/09/09 10:56:15;;;;;;;5.53;3.10;;;;;;;27.98;30.99;100763.47;5005331;28;20050;-65
2021/09/09 10:58:42;;;;;;;7.57;3.03;;;;;;;27.94;31.46;100765.03;5010348;28;20026;-64
2021/09/09 11:01:09;;;;;;;6.63;2.95;;;;;;;27.92;31.30;100757.00;5010311;28;20172;-65
2021/09/09 11:03:45;;;;;;;7.47;3.72;;;;;;;27.90;30.95;100750.88;5010246;28;20091;-65
2021/09/09 11:06:17;;;;;;;9.20;3.20;;;;;;;27.89;31.01;100760.22;5010065;28;20088;-65
2021/09/09 11:08:45;;;;;;;9.82;3.30;;;;;;;27.83;30.96;100750.09;5010341;28;20017;-65
2021/09/09 11:11:18;;;;;;;4.72;3.30;;;;;;;27.84;31.29;100756.47;5010192;28;20053;-65
2021/09/09 11:13:44;;;;;;;4.65;2.78;;;;;;;27.78;31.25;100751.88;5024141;28;20022;-65
2021/09/09 11:16:27;;;;;;;7.93;3.60;;;;;;;27.74;31.10;100751.53;5009848;28;20407;-65
2021/09/09 11:18:53;;;;;;;9.50;3.08;;;;;;;27.73;31.47;100754.53;5010253;28;20049;-65